createdAt,value
2019-02-09T00:00:49.180Z,100.00
2019-02-09T00:03:18.602Z,93.65
2019-02-09T00:05:47.056Z,93.65
2019-02-09T00:08:16.355Z,93.14
2019-02-09T00:10:44.978Z,93.14
2019-02-09T00:13:13.428Z,92.67
2019-02-09T00:15:41.968Z,92.29
2019-02-09T00:18:10.475Z,92.29
2019-02-09T00:20:38.953Z,91.95
2019-02-09T00:23:07.746Z,91.73
2019-02-09T00:25:36.970Z,91.57
2019-02-09T00:28:07.530Z,91.57
2019-02-09T00:30:36.149Z,91.33
2019-02-09T00:33:05.108Z,91.32
2019-02-09T00:35:33.641Z,91.31
2019-02-09T00:38:02.831Z,91.33
2019-02-09T00:40:31.512Z,91.33
2019-02-09T00:42:59.963Z,91.27
2019-02-09T00:45:28.971Z,91.37
2019-02-09T00:47:57.822Z,91.58
2019-02-09T00:50:26.701Z,91.28
2019-02-09T00:52:55.261Z,91.34
2019-02-09T00:55:26.093Z,91.38
2019-02-09T00:57:54.983Z,91.43
2019-02-09T01:00:28.623Z,91.27
2019-02-09T01:02:57.581Z,91.28
2019-02-09T01:05:32.228Z,91.17
2019-02-09T01:08:00.811Z,91.17
2019-02-09T01:10:30.638Z,90.94
2019-02-09T01:12:59.632Z,90.87
2019-02-09T01:15:28.731Z,90.85
2019-02-09T01:17:57.406Z,90.93
2019-02-09T01:20:27.615Z,90.94
2019-02-09T01:22:57.473Z,90.87
2019-02-09T01:25:26.331Z,90.88
2019-02-09T01:27:54.938Z,91.08
2019-02-09T01:30:28.007Z,91.16
2019-02-09T01:32:56.750Z,91.40
2019-02-09T01:35:25.762Z,91.79
2019-02-09T01:37:54.587Z,91.79
2019-02-09T01:40:25.555Z,91.93
2019-02-09T01:42:54.767Z,92.05
2019-02-09T01:45:28.192Z,92.05
2019-02-09T01:47:57.505Z,92.56
2019-02-09T01:50:28.098Z,92.56
2019-02-09T01:52:57.401Z,93.51
2019-02-09T01:55:27.307Z,93.51
2019-02-09T01:57:57.114Z,94.25
2019-02-09T02:00:31.600Z,94.25
2019-02-09T02:03:01.071Z,94.94
2019-02-09T02:05:29.841Z,94.94
2019-02-09T02:07:59.169Z,95.57
2019-02-09T02:10:30.069Z,95.57
2019-02-09T02:12:59.919Z,95.75
2019-02-09T02:15:29.078Z,95.75
2019-02-09T02:17:58.267Z,95.85
2019-02-09T02:20:31.548Z,95.85
2019-02-09T02:23:01.185Z,95.73
2019-02-09T02:25:29.917Z,95.73
2019-02-09T02:27:59.176Z,95.90
2019-02-09T02:30:35.887Z,95.90
2019-02-09T02:33:06.247Z,96.07
2019-02-09T02:35:35.654Z,96.07
2019-02-09T02:38:04.505Z,96.27
2019-02-09T02:40:33.694Z,96.38
2019-02-09T02:43:02.391Z,96.49
2019-02-09T02:45:31.042Z,96.42
2019-02-09T02:47:59.576Z,96.42
2019-02-09T02:50:28.369Z,96.47
2019-02-09T02:52:56.899Z,96.47
2019-02-09T02:55:27.994Z,96.47
2019-02-09T02:57:56.644Z,96.47
2019-02-09T03:00:32.496Z,96.39
2019-02-09T03:02:57.900Z,96.24
2019-02-09T03:05:26.610Z,96.09
2019-02-09T03:07:55.735Z,96.11
2019-02-09T03:10:24.446Z,96.24
2019-02-09T03:12:53.222Z,96.21
2019-02-09T03:15:33.127Z,96.21
2019-02-09T03:18:01.660Z,96.67
2019-02-09T03:20:30.262Z,96.67
2019-02-09T03:22:58.974Z,96.57
2019-02-09T03:25:33.038Z,96.52
2019-02-09T03:28:01.741Z,96.50
2019-02-09T03:30:30.536Z,96.61
2019-02-09T03:32:59.274Z,96.68
2019-02-09T03:35:27.734Z,96.68
2019-02-09T03:37:56.310Z,96.73
2019-02-09T03:40:27.360Z,96.70
2019-02-09T03:42:56.257Z,96.70
2019-02-09T03:45:30.221Z,96.72
2019-02-09T03:47:59.306Z,96.72
2019-02-09T03:50:30.464Z,96.72
2019-02-09T03:52:59.425Z,96.69
2019-02-09T03:55:27.953Z,96.69
2019-02-09T03:57:56.500Z,96.78
2019-02-09T04:00:26.974Z,96.66
2019-02-09T04:02:55.682Z,96.36
2019-02-09T04:05:24.209Z,96.13
2019-02-09T04:07:52.908Z,95.85
2019-02-09T04:10:26.571Z,95.54
2019-02-09T04:12:55.362Z,95.54
2019-02-09T04:15:26.302Z,95.41
2019-02-09T04:17:55.198Z,95.08
2019-02-09T04:20:25.322Z,94.85
2019-02-09T04:22:54.317Z,94.85
2019-02-09T04:25:23.918Z,94.84
2019-02-09T04:27:52.747Z,94.82
2019-02-09T04:30:23.945Z,94.82
2019-02-09T04:32:52.839Z,94.74
2019-02-09T04:35:21.463Z,94.74
2019-02-09T04:37:50.226Z,94.73
2019-02-09T04:40:21.747Z,95.00
2019-02-09T04:42:50.540Z,96.28
2019-02-09T04:45:19.929Z,96.28
2019-02-09T04:47:48.615Z,96.50
2019-02-09T04:50:18.341Z,97.00
2019-02-09T04:52:46.935Z,97.00
2019-02-09T04:55:20.919Z,97.07
2019-02-09T04:57:49.608Z,96.84
2019-02-09T05:00:20.467Z,96.56
2019-02-09T05:02:49.196Z,95.94
2019-02-09T05:05:17.828Z,95.78
2019-02-09T05:07:46.439Z,95.78
2019-02-09T05:10:20.292Z,94.95
2019-02-09T05:12:48.887Z,94.95
2019-02-09T05:15:19.200Z,95.08
2019-02-09T05:17:47.644Z,95.11
2019-02-09T05:20:21.355Z,95.11
2019-02-09T05:22:51.786Z,94.86
2019-02-09T05:25:20.324Z,94.85
2019-02-09T05:27:48.984Z,94.34
2019-02-09T05:30:22.466Z,94.34
2019-02-09T05:32:51.001Z,93.99
2019-02-09T05:35:19.763Z,93.69
2019-02-09T05:37:48.360Z,93.32
2019-02-09T05:40:19.358Z,92.60
2019-02-09T05:42:47.881Z,92.29
2019-02-09T05:45:21.646Z,92.29
2019-02-09T05:47:50.432Z,92.24
2019-02-09T05:50:20.286Z,92.03
2019-02-09T05:52:49.216Z,91.90
2019-02-09T05:55:18.442Z,91.76
2019-02-09T05:57:47.599Z,91.68
2019-02-09T06:00:20.752Z,91.57
2019-02-09T06:02:49.219Z,91.36
2019-02-09T06:05:18.051Z,91.08
2019-02-09T06:07:46.602Z,90.90
2019-02-09T06:10:17.536Z,90.81
2019-02-09T06:12:47.391Z,90.75
2019-02-09T06:15:18.915Z,90.51
2019-02-09T06:17:47.366Z,90.34
2019-02-09T06:20:19.093Z,90.21
2019-02-09T06:22:47.848Z,90.16
2019-02-09T06:25:16.447Z,90.13
2019-02-09T06:27:44.959Z,90.03
2019-02-09T06:30:21.954Z,89.90
2019-02-09T06:32:50.578Z,89.75
2019-02-09T06:35:19.561Z,89.73
2019-02-09T06:37:48.063Z,89.55
2019-02-09T06:40:18.900Z,89.33
2019-02-09T06:42:47.662Z,89.09
2019-02-09T06:45:18.370Z,88.98
2019-02-09T06:47:46.824Z,88.84
2019-02-09T06:50:20.857Z,88.72
2019-02-09T06:52:49.310Z,88.57
2019-02-09T06:55:17.833Z,88.42
2019-02-09T06:57:46.433Z,88.28
2019-02-09T07:00:20.392Z,88.18
2019-02-09T07:02:49.097Z,88.05
2019-02-09T07:05:19.364Z,87.79
2019-02-09T07:07:48.191Z,87.47
2019-02-09T07:10:22.182Z,87.05
2019-02-09T07:12:50.851Z,86.67
2019-02-09T07:15:22.349Z,86.34
2019-02-09T07:17:50.969Z,85.81
2019-02-09T07:20:19.716Z,85.52
2019-02-09T07:22:48.183Z,84.79
2019-02-09T07:25:17.176Z,84.13
2019-02-09T07:27:45.841Z,83.49
2019-02-09T07:30:17.388Z,82.94
2019-02-09T07:32:46.075Z,82.36
2019-02-09T07:35:15.135Z,81.87
2019-02-09T07:37:43.659Z,81.34
2019-02-09T07:40:15.072Z,80.54
2019-02-09T07:42:43.679Z,79.89
2019-02-09T07:45:15.207Z,79.29
2019-02-09T07:47:43.657Z,78.66
2019-02-09T07:50:15.417Z,78.72
2019-02-09T07:52:43.998Z,78.50
2019-02-09T07:55:15.547Z,77.95
2019-02-09T07:57:44.163Z,77.44
2019-02-09T08:00:27.645Z,76.35
2019-02-09T08:02:56.680Z,75.97
2019-02-09T08:05:26.817Z,75.69
2019-02-09T08:07:55.781Z,75.47
2019-02-09T08:10:29.981Z,75.67
2019-02-09T08:12:59.116Z,75.60
2019-02-09T08:15:30.691Z,75.81
2019-02-09T08:17:59.607Z,75.94
2019-02-09T08:20:30.121Z,75.89
2019-02-09T08:23:01.066Z,75.88
2019-02-09T08:25:31.992Z,75.64
2019-02-09T08:28:00.790Z,75.43
2019-02-09T08:30:44.343Z,74.71
2019-02-09T08:33:13.053Z,74.14
2019-02-09T08:35:41.575Z,73.27
2019-02-09T08:38:11.152Z,72.87
2019-02-09T08:40:39.754Z,72.30
2019-02-09T08:43:08.350Z,71.72
2019-02-09T08:45:37.033Z,71.59
2019-02-09T08:48:05.928Z,70.90
2019-02-09T08:50:43.113Z,70.58
2019-02-09T08:53:11.627Z,69.66
2019-02-09T08:55:40.270Z,69.15
2019-02-09T08:58:08.857Z,68.79
2019-02-09T09:00:38.907Z,68.63
2019-02-09T09:03:07.502Z,68.21
2019-02-09T09:05:36.929Z,67.93
2019-02-09T09:08:06.021Z,67.81
2019-02-09T09:10:34.730Z,67.20
2019-02-09T09:13:04.080Z,66.68
2019-02-09T09:15:35.551Z,66.49
2019-02-09T09:18:04.352Z,65.95
2019-02-09T09:20:38.615Z,65.63
2019-02-09T09:23:07.135Z,65.17
2019-02-09T09:25:35.842Z,64.58
2019-02-09T09:28:04.900Z,64.26
2019-02-09T09:30:33.535Z,64.35
2019-02-09T09:33:02.228Z,64.20
2019-02-09T09:35:30.863Z,65.23
2019-02-09T09:37:59.491Z,64.42
2019-02-09T09:40:33.044Z,66.33
2019-02-09T09:43:01.708Z,63.98
2019-02-09T09:45:32.404Z,64.01
2019-02-09T09:48:01.022Z,63.65
2019-02-09T09:50:30.484Z,63.92
2019-02-09T09:52:59.087Z,63.73
2019-02-09T09:55:27.798Z,63.80
2019-02-09T09:57:56.394Z,63.58
2019-02-09T10:00:27.408Z,63.54
2019-02-09T10:02:56.049Z,63.58
2019-02-09T10:05:24.885Z,63.30
2019-02-09T10:07:53.613Z,63.13
2019-02-09T10:10:22.713Z,62.68
2019-02-09T10:12:51.412Z,62.65
2019-02-09T10:15:30.175Z,62.11
2019-02-09T10:17:58.890Z,62.44
2019-02-09T10:20:28.666Z,62.59
2019-02-09T10:22:57.323Z,63.18
2019-02-09T10:25:25.914Z,63.41
2019-02-09T10:27:56.697Z,63.92
2019-02-09T10:30:33.139Z,63.97
2019-02-09T10:33:01.659Z,63.80
2019-02-09T10:35:30.195Z,63.83
2019-02-09T10:37:58.765Z,64.28
2019-02-09T10:40:32.394Z,64.35
2019-02-09T10:43:02.201Z,64.34
2019-02-09T10:45:31.856Z,64.51
2019-02-09T10:48:01.656Z,64.44
2019-02-09T10:50:32.465Z,64.34
2019-02-09T10:53:01.387Z,64.39
2019-02-09T10:55:29.909Z,64.72
2019-02-09T10:57:58.672Z,64.93
2019-02-09T11:00:32.787Z,65.14
2019-02-09T11:03:01.421Z,65.43
2019-02-09T11:05:31.040Z,66.04
2019-02-09T11:07:59.652Z,66.53
2019-02-09T11:10:28.455Z,67.38
2019-02-09T11:12:57.003Z,69.10
2019-02-09T11:15:25.606Z,70.15
2019-02-09T11:17:54.153Z,70.08
2019-02-09T11:20:24.752Z,69.81
2019-02-09T11:22:53.687Z,69.57
2019-02-09T11:25:23.580Z,69.56
2019-02-09T11:27:52.174Z,69.60
2019-02-09T11:30:26.189Z,68.14
2019-02-09T11:33:01.696Z,67.71
2019-02-09T11:35:25.047Z,67.69
2019-02-09T11:37:53.554Z,66.99
2019-02-09T11:40:33.265Z,66.84
2019-02-09T11:43:02.423Z,67.17
2019-02-09T11:45:32.707Z,67.63
2019-02-09T11:48:01.181Z,67.52
2019-02-09T11:50:29.752Z,66.81
2019-02-09T11:52:58.532Z,66.80
2019-02-09T11:55:27.066Z,65.77
2019-02-09T11:57:55.739Z,65.66
2019-02-09T12:00:32.628Z,64.73
2019-02-09T12:03:05.590Z,64.28
2019-02-09T12:05:31.446Z,64.22
2019-02-09T12:07:59.962Z,62.88
2019-02-09T12:10:29.720Z,62.54
2019-02-09T12:12:58.421Z,61.00
2019-02-09T12:15:29.560Z,59.66
2019-02-09T12:17:58.226Z,58.70
2019-02-09T12:20:26.821Z,58.33
2019-02-09T12:22:55.540Z,58.30
2019-02-09T12:25:29.650Z,57.39
2019-02-09T12:27:58.412Z,57.40
2019-02-09T12:30:29.504Z,56.54
2019-02-09T12:32:59.093Z,55.73
2019-02-09T12:35:27.959Z,55.46
2019-02-09T12:37:56.593Z,54.86
2019-02-09T12:40:30.109Z,54.13
2019-02-09T12:42:58.857Z,54.46
2019-02-09T12:45:29.744Z,53.07
2019-02-09T12:47:58.303Z,53.08
2019-02-09T12:50:28.136Z,52.31
2019-02-09T12:52:56.819Z,52.02
2019-02-09T12:55:26.116Z,51.07
2019-02-09T12:57:54.712Z,51.27
2019-02-09T13:00:37.804Z,50.48
2019-02-09T13:03:18.517Z,49.76
2019-02-09T13:05:47.115Z,49.29
2019-02-09T13:08:15.636Z,49.15
2019-02-09T13:10:45.108Z,48.41
2019-02-09T13:13:13.742Z,49.16
2019-02-09T13:15:42.250Z,51.77
2019-02-09T13:18:10.816Z,54.13
2019-02-09T13:20:39.465Z,57.01
2019-02-09T13:23:09.247Z,58.36
2019-02-09T13:25:37.794Z,59.65
2019-02-09T13:28:06.666Z,61.09
2019-02-09T13:30:40.377Z,62.19
2019-02-09T13:33:09.166Z,63.07
2019-02-09T13:35:37.671Z,63.71
2019-02-09T13:38:06.301Z,64.27
2019-02-09T13:40:34.892Z,64.71
2019-02-09T13:43:03.644Z,65.21
2019-02-09T13:45:41.111Z,65.54
2019-02-09T13:48:09.955Z,65.73
2019-02-09T13:50:38.544Z,66.06
2019-02-09T13:53:07.941Z,66.23
2019-02-09T13:55:36.529Z,66.66
2019-02-09T13:58:05.432Z,67.19
2019-02-09T14:00:34.333Z,67.38
2019-02-09T14:03:03.974Z,67.08
2019-02-09T14:05:32.420Z,67.19
2019-02-09T14:08:01.052Z,67.05
2019-02-09T14:10:30.084Z,67.28
2019-02-09T14:12:58.636Z,67.41
2019-02-09T14:15:35.476Z,67.39
2019-02-09T14:18:07.010Z,67.68
2019-02-09T14:20:35.601Z,67.77
2019-02-09T14:23:04.456Z,68.02
2019-02-09T14:25:32.914Z,68.36
2019-02-09T14:28:02.373Z,68.30
2019-02-09T14:30:33.216Z,68.16
2019-02-09T14:33:02.316Z,67.84
2019-02-09T14:35:30.960Z,67.35
2019-02-09T14:38:00.441Z,67.46
2019-02-09T14:40:31.034Z,62.82
2019-02-09T14:42:59.929Z,60.15
2019-02-09T14:45:40.539Z,58.05
2019-02-09T14:48:09.142Z,55.70
2019-02-09T14:50:37.658Z,53.42
2019-02-09T14:53:07.916Z,51.59
2019-02-09T14:55:38.172Z,51.17
2019-02-09T14:58:07.271Z,50.61
2019-02-09T15:00:39.566Z,50.39
2019-02-09T15:03:09.060Z,50.55
2019-02-09T15:05:37.657Z,51.73
2019-02-09T15:08:07.294Z,53.47
2019-02-09T15:10:37.815Z,54.26
2019-02-09T15:13:07.838Z,54.72
2019-02-09T15:15:39.503Z,55.86
2019-02-09T15:18:10.029Z,56.25
2019-02-09T15:20:44.578Z,57.14
2019-02-09T15:23:13.037Z,57.95
2019-02-09T15:25:41.791Z,58.90
2019-02-09T15:28:12.677Z,59.65
2019-02-09T15:30:40.677Z,61.29
2019-02-09T15:33:09.289Z,62.73
2019-02-09T15:35:38.076Z,64.15
2019-02-09T15:38:06.684Z,65.27
2019-02-09T15:40:35.140Z,66.81
2019-02-09T15:43:03.783Z,67.68
2019-02-09T15:45:32.331Z,68.53
2019-02-09T15:48:00.767Z,69.45
2019-02-09T15:50:29.269Z,70.44
2019-02-09T15:52:57.835Z,71.22
2019-02-09T15:55:26.357Z,71.99
2019-02-09T15:57:54.855Z,72.65
2019-02-09T16:00:25.604Z,73.27
2019-02-09T16:02:55.706Z,73.85
2019-02-09T16:05:24.888Z,74.37
2019-02-09T16:07:53.425Z,74.83
2019-02-09T16:10:23.224Z,75.22
2019-02-09T16:12:51.880Z,75.62
2019-02-09T16:15:31.271Z,75.84
2019-02-09T16:18:00.013Z,76.24
2019-02-09T16:20:30.707Z,76.54
2019-02-09T16:22:59.317Z,76.71
2019-02-09T16:25:28.099Z,76.70
2019-02-09T16:27:57.553Z,76.86
2019-02-09T16:30:30.627Z,76.92
2019-02-09T16:32:59.320Z,76.84
2019-02-09T16:35:29.415Z,76.92
2019-02-09T16:37:57.945Z,77.06
2019-02-09T16:40:33.729Z,77.24
2019-02-09T16:43:02.454Z,77.59
2019-02-09T16:45:38.696Z,77.71
2019-02-09T16:48:11.202Z,77.72
2019-02-09T16:50:39.793Z,77.69
2019-02-09T16:53:08.738Z,77.48
2019-02-09T16:55:37.429Z,77.41
2019-02-09T16:58:06.822Z,77.28
2019-02-09T17:00:45.556Z,77.31
2019-02-09T17:03:15.781Z,77.39
2019-02-09T17:05:44.379Z,100.00
2019-02-09T17:08:14.237Z,77.47
2019-02-09T17:10:42.773Z,100.00
2019-02-09T17:13:11.867Z,77.75
2019-02-09T17:15:40.377Z,100.00
2019-02-09T17:18:09.628Z,78.11
2019-02-09T17:20:38.167Z,100.00
2019-02-09T17:23:07.938Z,78.33
2019-02-09T17:25:36.781Z,100.00
2019-02-09T17:28:06.546Z,78.35
2019-02-09T17:30:37.318Z,100.00
2019-02-09T17:33:07.419Z,78.53
2019-02-09T17:35:36.117Z,78.53
2019-02-09T17:38:06.663Z,78.53
2019-02-09T17:40:44.005Z,100.00
2019-02-09T17:43:13.470Z,78.61
2019-02-09T17:45:50.582Z,78.61
2019-02-09T17:48:19.720Z,78.74
2019-02-09T17:50:48.397Z,78.74
2019-02-09T17:53:17.086Z,78.72
2019-02-09T17:55:45.738Z,78.84
2019-02-09T17:58:14.256Z,78.90
2019-02-09T18:00:46.861Z,78.84
2019-02-09T18:03:15.491Z,78.84
2019-02-09T18:05:43.943Z,79.02
2019-02-09T18:08:12.429Z,79.11
2019-02-09T18:10:41.049Z,79.15
2019-02-09T18:13:09.742Z,79.31
2019-02-09T18:15:38.204Z,79.39
2019-02-09T18:18:08.699Z,79.48
2019-02-09T18:20:37.295Z,79.65
2019-02-09T18:23:05.909Z,79.68
2019-02-09T18:25:34.550Z,79.79
2019-02-09T18:28:03.039Z,79.88
2019-02-09T18:30:32.519Z,79.96
2019-02-09T18:33:01.488Z,80.11
2019-02-09T18:35:30.080Z,80.28
2019-02-09T18:37:59.793Z,80.43
2019-02-09T18:40:28.719Z,80.57
2019-02-09T18:42:58.316Z,80.63
2019-02-09T18:45:31.558Z,80.75
2019-02-09T18:48:00.218Z,80.79
2019-02-09T18:50:30.219Z,80.77
2019-02-09T18:53:00.128Z,80.86
2019-02-09T18:55:29.990Z,80.88
2019-02-09T18:57:58.683Z,80.94
2019-02-09T19:00:36.097Z,80.96
2019-02-09T19:03:06.293Z,80.98
2019-02-09T19:05:34.886Z,81.01
2019-02-09T19:08:04.166Z,81.04
2019-02-09T19:10:32.622Z,80.95
2019-02-09T19:13:01.083Z,80.79
2019-02-09T19:15:29.859Z,80.59
2019-02-09T19:17:59.567Z,80.37
2019-02-09T19:20:46.750Z,80.27
2019-02-09T19:23:15.204Z,79.99
2019-02-09T19:25:43.909Z,79.88
2019-02-09T19:28:12.488Z,79.87
2019-02-09T19:30:41.098Z,79.85
2019-02-09T19:33:09.907Z,79.75
2019-02-09T19:35:38.572Z,79.76
2019-02-09T19:38:07.139Z,79.91
2019-02-09T19:40:35.613Z,80.22
2019-02-09T19:43:07.590Z,80.24
2019-02-09T19:45:38.573Z,80.31
2019-02-09T19:48:08.197Z,80.44
2019-02-09T19:50:36.700Z,80.45
2019-02-09T19:53:05.895Z,80.40
2019-02-09T19:55:37.834Z,80.52
2019-02-09T19:58:07.046Z,80.44
2019-02-09T20:00:46.933Z,80.52
2019-02-09T20:03:15.465Z,80.67
2019-02-09T20:05:44.019Z,80.68
2019-02-09T20:08:12.871Z,80.75
2019-02-09T20:10:42.981Z,80.77
2019-02-09T20:13:13.180Z,80.75
2019-02-09T20:15:41.813Z,80.77
2019-02-09T20:18:11.214Z,80.53
2019-02-09T20:20:46.985Z,80.43
2019-02-09T20:23:10.145Z,80.31
2019-02-09T20:25:38.636Z,80.11
2019-02-09T20:28:07.359Z,79.96
2019-02-09T20:30:37.238Z,79.74
2019-02-09T20:33:06.227Z,79.53
2019-02-09T20:35:34.865Z,79.47
2019-02-09T20:38:03.960Z,79.39
2019-02-09T20:40:43.937Z,79.44
2019-02-09T20:43:18.366Z,79.50
2019-02-09T20:45:47.072Z,79.49
2019-02-09T20:48:15.613Z,79.62
2019-02-09T20:50:44.262Z,79.65
2019-02-09T20:53:12.887Z,79.66
2019-02-09T20:55:41.411Z,79.84
2019-02-09T20:58:11.114Z,79.77
2019-02-09T21:00:39.808Z,79.68
2019-02-09T21:03:08.355Z,79.45
2019-02-09T21:05:37.132Z,79.42
2019-02-09T21:08:06.091Z,79.35
2019-02-09T21:10:45.716Z,79.33
2019-02-09T21:13:14.240Z,79.31
2019-02-09T21:15:42.846Z,79.34
2019-02-09T21:20:37.830Z,79.57
2019-02-09T21:23:06.956Z,79.65
2019-02-09T21:25:41.191Z,79.73
2019-02-09T21:28:09.966Z,79.89
2019-02-09T21:30:38.527Z,80.08
2019-02-09T21:33:07.481Z,80.16
2019-02-09T21:35:43.492Z,80.34
2019-02-09T21:38:06.826Z,80.47
2019-02-09T21:40:35.350Z,80.78
2019-02-09T21:43:04.068Z,80.90
2019-02-09T21:45:32.681Z,81.07
2019-02-09T21:48:01.140Z,81.22
2019-02-09T21:50:32.160Z,81.27
2019-02-09T21:53:00.625Z,81.50
2019-02-09T21:55:29.434Z,81.79
2019-02-09T21:57:58.021Z,82.08
2019-02-09T22:00:37.771Z,82.33
2019-02-09T22:03:08.255Z,82.40
2019-02-09T22:05:37.059Z,82.57
2019-02-09T22:08:07.144Z,82.66
2019-02-09T22:10:35.717Z,82.74
2019-02-09T22:13:04.495Z,82.85
2019-02-09T22:15:38.760Z,82.97
2019-02-09T22:18:04.410Z,83.06
2019-02-09T22:20:33.827Z,82.89
2019-02-09T22:23:02.296Z,82.80
2019-02-09T22:25:31.022Z,82.89
2019-02-09T22:27:59.550Z,82.95
2019-02-09T22:30:30.402Z,83.04
2019-02-09T22:32:59.719Z,83.20
2019-02-09T22:35:28.607Z,83.49
2019-02-09T22:37:57.967Z,83.43
2019-02-09T22:40:35.762Z,83.38
2019-02-09T22:43:04.958Z,83.37
2019-02-09T22:45:33.553Z,83.42
2019-02-09T22:48:02.741Z,83.45
2019-02-09T22:50:36.988Z,83.66
2019-02-09T22:53:06.399Z,83.67
2019-02-09T22:55:35.047Z,83.62
2019-02-09T22:58:03.580Z,83.46
2019-02-09T23:00:51.591Z,83.46
2019-02-09T23:03:22.389Z,83.46
2019-02-09T23:06:07.713Z,83.44
2019-02-09T23:08:30.041Z,83.26
2019-02-09T23:10:58.495Z,83.13
2019-02-09T23:13:26.995Z,83.01
2019-02-09T23:15:55.687Z,82.90
2019-02-09T23:18:24.139Z,82.84
2019-02-09T23:20:52.650Z,82.97
2019-02-09T23:23:21.097Z,83.02
2019-02-09T23:25:49.575Z,83.04
2019-02-09T23:28:18.073Z,83.10
2019-02-09T23:30:46.895Z,83.22
2019-02-09T23:33:15.344Z,83.15
2019-02-09T23:35:43.927Z,83.23
2019-02-09T23:38:12.378Z,83.46
2019-02-09T23:40:40.890Z,83.77
2019-02-09T23:43:09.729Z,83.88
2019-02-09T23:45:38.174Z,83.77
2019-02-09T23:48:06.624Z,83.80
2019-02-09T23:50:35.133Z,83.81
2019-02-09T23:53:03.716Z,83.79
2019-02-09T23:55:32.192Z,84.01
2019-02-09T23:58:00.736Z,84.21
